LFKS 210400Z AUTO 27005KT 240V300 9999 OVC064 09/03 Q1017

ElémentsDécodage
LFKS Station météo située sur l'aérodrome de SOLENZARA
210400Z émis le 21 du mois à 04h00 UTC
AUTO Bulletin édité par un automate
27005KT vent du 270°, 05 noeuds
240V300 vent de direction variable entre 240° et 300°
9999 visibilité horizontale supérieure à 10 Km
OVC064 couverture nuageuse totale (8/8) à 6400 pieds
09/03 température 09°C, point de rosée 03°C
 soit une humidité relative de 66%
Q1017 la pression au niveau de la mer (QNH) est de 1017 hPa